Sault Ste Marie, Canada
Current Conditions -  °F | °C
As of 12:24 PM on Thursday 23 Oct 2014 (Local Time) from KANJ Reporting Station
Overcast Overcast  
Wind Chill: 43°   Ceiling: 500
Heat Index: 43°   Visibility: 10mi
Dew Point: 41°   Wind: 3mph
Humidity: 93%   Direction: 90°E
Pressure: 30.19"   Gusts: NA
Location:  46.52°N, 84.35°W
Report Text: KANJ 231624Z AUTO 09003KT 10SM BKN005 OVC009 06/05 A3019 RMK AO2 CIG 003V008 T00610050
Loading
Personal Weather Stations






























Interactive Weather Map
Tropical Storm Tracking
New forecast layout! Learn more

10-Day Weather Forecast

Advertisements
Track Severe Weather on mobile